Time;durP1;ratioP1;P1;durP2;ratioP2;P2;SDS_P1;SDS_P2;PMS_P1;PMS_P2;Temp;Humidity;BMP_temperature;BMP_pressure;BME280_temperature;BME280_humidity;BME280_pressure;Samples;Min_cycle;Max_cycle;Signal;HPM_P1;HPM_P2
2022/07/05 00:01:12;;;;;;;8.52;2.28;;;;;;;15.79;46.87;101250.00;5112864;28;20059;-69
2022/07/05 00:03:39;;;;;;;5.90;2.13;;;;;;;15.81;46.88;101242.53;5112869;28;20486;-69
2022/07/05 00:06:06;;;;;;;7.57;2.40;;;;;;;15.80;46.99;101241.69;5113117;28;20437;-69
2022/07/05 00:08:33;;;;;;;4.00;1.98;;;;;;;15.78;47.06;101240.19;5107963;28;20110;-69
2022/07/05 00:10:59;;;;;;;7.30;2.20;;;;;;;15.80;47.04;101244.41;5112127;28;20074;-69
2022/07/05 00:13:26;;;;;;;3.17;1.70;;;;;;;15.75;46.98;101235.16;5113416;28;20066;-69
2022/07/05 00:15:52;;;;;;;4.03;1.63;;;;;;;15.71;47.30;101243.66;5112410;28;20126;-69
2022/07/05 00:18:19;;;;;;;3.70;1.63;;;;;;;15.57;47.71;101244.41;5112656;28;20415;-69
2022/07/05 00:20:45;;;;;;;4.03;1.58;;;;;;;15.60;47.24;101248.59;5112213;28;20536;-68
2022/07/05 00:23:12;;;;;;;3.75;1.77;;;;;;;15.59;47.40;101253.16;5111930;28;20066;-69
2022/07/05 00:25:39;;;;;;;9.55;1.80;;;;;;;15.57;47.24;101239.00;5111850;28;20079;-69
2022/07/05 00:28:05;;;;;;;7.22;2.33;;;;;;;15.56;47.04;101244.56;5111783;28;20497;-69
2022/07/05 00:30:32;;;;;;;4.10;1.65;;;;;;;15.55;47.15;101245.59;5111955;28;20059;-69
2022/07/05 00:32:58;;;;;;;3.60;1.50;;;;;;;15.56;47.11;101248.09;5112792;28;20044;-69
2022/07/05 00:35:25;;;;;;;7.05;1.65;;;;;;;15.49;47.04;101247.16;5106478;28;20044;-69
2022/07/05 00:37:51;;;;;;;3.40;1.38;;;;;;;15.49;47.18;101250.69;5111414;28;20051;-69
2022/07/05 00:40:18;;;;;;;5.32;2.13;;;;;;;15.51;47.23;101255.94;5112435;28;20122;-69
2022/07/05 00:42:44;;;;;;;4.63;1.60;;;;;;;15.52;47.26;101246.78;5111738;28;20127;-69
2022/07/05 00:45:11;;;;;;;2.65;1.38;;;;;;;15.46;47.29;101245.63;5111067;28;20127;-69
2022/07/05 00:47:38;;;;;;;3.20;1.30;;;;;;;15.48;47.48;101257.13;5111942;28;20048;-69
2022/07/05 00:50:05;;;;;;;3.33;1.77;;;;;;;15.49;47.73;101260.66;5112075;28;20135;-69
2022/07/05 00:52:32;;;;;;;3.13;1.50;;;;;;;15.49;47.62;101250.69;5111491;28;20043;-69
2022/07/05 00:54:58;;;;;;;4.50;1.35;;;;;;;15.44;48.06;101255.81;5112179;28;20126;-69
2022/07/05 00:57:25;;;;;;;4.57;1.80;;;;;;;15.45;48.46;101257.47;5111520;28;20044;-69
2022/07/05 00:59:52;;;;;;;3.15;1.30;;;;;;;15.40;48.72;101261.75;5111970;28;20128;-69
2022/07/05 01:02:19;;;;;;;8.15;1.95;;;;;;;15.64;48.71;101258.91;5112332;28;20439;-69
2022/07/05 01:04:51;;;;;;;7.97;1.67;;;;;;;15.94;47.98;101261.69;5111778;28;20051;-69
2022/07/05 01:07:20;;;;;;;6.03;1.77;;;;;;;16.11;47.64;101271.34;5112209;28;20051;-69
2022/07/05 01:09:46;;;;;;;5.03;1.48;;;;;;;16.68;46.33;101261.84;5111353;28;20048;-69
2022/07/05 01:12:13;;;;;;;6.53;1.85;;;;;;;16.81;45.97;101258.44;5092227;28;20130;-69
2022/07/05 01:14:42;;;;;;;4.30;1.27;;;;;;;16.93;45.67;101267.78;5112038;28;20067;-69
2022/07/05 01:17:09;;;;;;;3.38;1.15;;;;;;;16.96;45.32;101272.00;5111890;28;20044;-69
2022/07/05 01:19:37;;;;;;;2.90;1.30;;;;;;;16.63;46.03;101267.81;5112321;28;20407;-69
2022/07/05 01:22:12;;;;;;;2.88;1.40;;;;;;;16.95;45.53;101268.44;5111812;28;20201;-69
2022/07/05 01:24:39;;;;;;;3.60;1.40;;;;;;;16.81;45.83;101274.72;5111664;28;20131;-69
2022/07/05 01:27:06;;;;;;;5.05;1.10;;;;;;;16.52;46.73;101268.28;5111208;28;20105;-69
2022/07/05 01:29:33;;;;;;;2.20;1.25;;;;;;;17.00;45.71;101263.28;5112019;28;20472;-69
2022/07/05 01:31:59;;;;;;;1.40;1.05;;;;;;;16.98;45.70;101268.06;5111187;28;20497;-69
2022/07/05 01:34:26;;;;;;;2.85;1.15;;;;;;;17.08;45.28;101262.34;5111871;28;20131;-69
2022/07/05 01:36:53;;;;;;;6.03;1.25;;;;;;;16.89;45.91;101267.34;5111285;28;20087;-69
2022/07/05 01:39:20;;;;;;;3.70;0.73;;;;;;;16.81;46.23;101264.69;5110023;28;20480;-69
2022/07/05 01:41:48;;;;;;;3.58;1.30;;;;;;;16.71;46.62;101266.03;5112158;28;20044;-69
2022/07/05 01:44:15;;;;;;;2.63;1.13;;;;;;;16.75;46.46;101268.19;5112431;28;20074;-69
2022/07/05 01:46:42;;;;;;;2.85;0.90;;;;;;;16.66;46.84;101270.13;5111381;28;20487;-69
2022/07/05 01:49:11;;;;;;;5.88;1.27;;;;;;;16.64;46.69;101264.09;5111342;28;20075;-69
2022/07/05 01:52:01;;;;;;;3.22;1.48;;;;;;;16.41;47.35;101256.00;5110304;28;20139;-69
2022/07/05 01:54:28;;;;;;;4.28;1.33;;;;;;;16.09;48.21;101259.03;5110843;28;20475;-69
2022/07/05 01:56:55;;;;;;;2.15;1.10;;;;;;;15.91;48.83;101260.19;5111232;28;20146;-69
2022/07/05 01:59:21;;;;;;;3.28;1.35;;;;;;;15.74;49.27;101255.09;5111955;28;20074;-68
2022/07/05 02:01:48;;;;;;;2.08;1.20;;;;;;;15.64;49.58;101263.47;5112111;28;20126;-68
2022/07/05 02:04:17;;;;;;;3.42;1.23;;;;;;;15.55;49.94;101259.13;5111421;28;20050;-68
2022/07/05 02:06:45;;;;;;;4.10;1.27;;;;;;;15.48;49.97;101259.00;5111186;28;20468;-68
2022/07/05 02:09:12;;;;;;;1.70;1.10;;;;;;;15.55;49.84;101259.94;5111381;28;20541;-68
2022/07/05 02:11:38;;;;;;;3.38;1.13;;;;;;;15.59;49.63;101255.03;5111851;28;20510;-68
2022/07/05 02:14:05;;;;;;;3.67;1.33;;;;;;;15.57;49.32;101249.81;5111072;28;20429;-68
2022/07/05 02:16:31;;;;;;;6.97;1.40;;;;;;;15.91;48.58;101259.34;5110730;28;20039;-68
2022/07/05 02:18:58;;;;;;;1.80;1.13;;;;;;;16.12;48.06;101264.91;5111146;28;20054;-68
2022/07/05 02:21:25;;;;;;;2.28;1.10;;;;;;;16.11;48.08;101263.22;5109308;28;20079;-68
2022/07/05 02:23:51;;;;;;;1.85;0.90;;;;;;;16.41;47.10;101257.88;5112408;28;20096;-68
2022/07/05 02:26:18;;;;;;;2.05;1.05;;;;;;;16.30;47.28;101263.75;5115679;28;20387;-68
2022/07/05 02:28:45;;;;;;;3.30;1.23;;;;;;;16.22;47.48;101258.41;5094982;28;20063;-68
2022/07/05 02:31:12;;;;;;;2.40;1.48;;;;;;;15.93;48.17;101276.25;5095790;28;20412;-68
2022/07/05 02:33:38;;;;;;;2.70;1.20;;;;;;;16.00;47.91;101274.50;5095666;28;20093;-68
2022/07/05 02:36:11;;;;;;;2.30;1.20;;;;;;;16.14;48.05;101268.28;5095218;28;20131;-68
2022/07/05 02:38:39;;;;;;;7.20;1.52;;;;;;;16.23;47.58;101266.34;5095597;28;20086;-68
2022/07/05 02:41:07;;;;;;;4.38;1.20;;;;;;;16.09;47.77;101272.56;5095460;28;20040;-68
2022/07/05 02:43:34;;;;;;;2.30;1.05;;;;;;;16.33;47.38;101272.34;5095185;28;20207;-68
2022/07/05 02:46:01;;;;;;;2.75;1.30;;;;;;;16.43;47.09;101274.75;5094381;28;20123;-68
2022/07/05 02:48:28;;;;;;;3.38;1.35;;;;;;;16.56;46.67;101272.28;5093454;28;20047;-68
2022/07/05 02:50:55;;;;;;;4.25;1.33;;;;;;;16.49;46.88;101265.06;5093292;28;20072;-67
2022/07/05 02:53:21;;;;;;;3.47;1.55;;;;;;;16.48;46.94;101266.94;5094498;28;20060;-67
2022/07/05 02:55:48;;;;;;;3.28;1.33;;;;;;;16.76;46.58;101271.72;5095251;28;20472;-67
2022/07/05 02:58:16;;;;;;;7.28;1.58;;;;;;;16.78;46.29;101269.66;5094315;28;20044;-68
2022/07/05 03:00:44;;;;;;;2.22;0.93;;;;;;;16.77;46.57;101271.53;5093803;28;20511;-68
2022/07/05 03:03:10;;;;;;;5.20;1.13;;;;;;;16.97;45.72;101279.94;5072290;28;20476;-68
2022/07/05 03:05:37;;;;;;;2.35;1.08;;;;;;;16.96;45.88;101280.97;5093851;28;20044;-68
2022/07/05 03:08:03;;;;;;;3.00;1.25;;;;;;;16.89;46.08;101285.47;5094548;28;20123;-68
2022/07/05 03:10:30;;;;;;;3.50;1.35;;;;;;;16.91;46.11;101275.25;5093970;28;20353;-68
2022/07/05 03:12:56;;;;;;;3.33;1.13;;;;;;;16.93;46.25;101289.47;5093833;28;20064;-68
2022/07/05 03:15:23;;;;;;;3.13;1.20;;;;;;;16.75;47.17;101289.88;5094118;28;20100;-68
2022/07/05 03:17:50;;;;;;;4.40;1.02;;;;;;;16.70;47.47;101291.44;5094029;28;20131;-68
2022/07/05 03:20:18;;;;;;;5.95;1.80;;;;;;;16.60;47.52;101286.28;5073880;28;20048;-68
2022/07/05 03:22:44;;;;;;;6.47;1.13;;;;;;;16.85;46.90;101298.56;5105620;28;20127;-68
2022/07/05 03:25:11;;;;;;;4.63;1.48;;;;;;;16.77;47.34;101289.66;5114225;28;20135;-68
2022/07/05 03:27:37;;;;;;;6.40;1.60;;;;;;;16.68;47.73;101288.94;5114232;28;20043;-68
2022/07/05 03:30:04;;;;;;;1.50;0.90;;;;;;;16.66;48.14;101291.81;5113475;28;20472;-68
2022/07/05 03:32:31;;;;;;;8.32;1.50;;;;;;;16.45;48.83;101286.25;5113622;28;20122;-67
2022/07/05 03:34:57;;;;;;;4.63;1.58;;;;;;;16.72;48.10;101292.94;5113355;28;20075;-67
2022/07/05 03:37:24;;;;;;;2.55;1.10;;;;;;;16.93;47.38;101297.59;5095235;28;20157;-68
2022/07/05 03:39:50;;;;;;;4.60;1.50;;;;;;;16.88;47.34;101300.84;5113617;28;20078;-67
2022/07/05 03:42:17;;;;;;;2.45;1.17;;;;;;;16.94;47.73;101307.41;5112839;28;20127;-68
2022/07/05 03:44:43;;;;;;;4.88;1.20;;;;;;;16.98;47.26;101306.00;5098231;28;20139;-67
2022/07/05 03:47:10;;;;;;;4.45;1.60;;;;;;;16.81;47.60;101304.50;5114199;28;20050;-68
2022/07/05 03:49:36;;;;;;;10.00;1.52;;;;;;;16.62;47.98;101309.47;5113307;28;20073;-68
2022/07/05 03:52:03;;;;;;;4.28;2.00;;;;;;;16.48;48.56;101306.72;5112775;28;20074;-68
2022/07/05 03:54:30;;;;;;;2.00;1.15;;;;;;;16.50;48.57;101310.06;5112135;28;20467;-68
2022/07/05 03:56:56;;;;;;;7.80;1.63;;;;;;;16.47;48.87;101307.72;5113298;28;20130;-68
2022/07/05 03:59:23;;;;;;;6.03;1.67;;;;;;;15.99;50.20;101316.13;5113786;28;20054;-68
2022/07/05 04:01:49;;;;;;;6.78;1.90;;;;;;;16.04;50.12;101321.81;5114098;28;20123;-68
2022/07/05 04:04:16;;;;;;;2.83;1.17;;;;;;;16.44;49.15;101325.22;5113006;28;20047;-68
2022/07/05 04:06:43;;;;;;;6.43;1.42;;;;;;;16.39;49.44;101322.19;5112530;28;20051;-68
2022/07/05 04:09:09;;;;;;;7.78;1.63;;;;;;;16.57;48.85;101317.28;5112538;28;20130;-68
2022/07/05 04:11:37;;;;;;;8.30;1.40;;;;;;;16.78;48.43;101329.28;5113467;28;20063;-68
2022/07/05 04:14:03;;;;;;;2.90;1.17;;;;;;;16.66;48.63;101328.91;5113081;28;20073;-68
2022/07/05 04:16:30;;;;;;;4.63;1.92;;;;;;;16.67;48.53;101331.41;5113013;28;20049;-68
2022/07/05 04:18:56;;;;;;;2.80;1.20;;;;;;;16.77;48.50;101328.44;5111026;28;20108;-68
2022/07/05 04:21:23;;;;;;;6.53;1.35;;;;;;;16.50;49.17;101323.63;5112479;28;20472;-68
2022/07/05 04:23:49;;;;;;;8.57;1.45;;;;;;;16.48;49.36;101331.94;5112979;28;20086;-68
2022/07/05 04:26:16;;;;;;;4.85;1.30;;;;;;;16.42;49.49;101341.63;5112406;28;20123;-68
2022/07/05 04:28:43;;;;;;;4.13;1.20;;;;;;;16.64;49.06;101337.22;5113053;28;20185;-68
2022/07/05 04:31:09;;;;;;;5.25;1.40;;;;;;;16.67;48.67;101336.00;5112495;28;20043;-68
2022/07/05 04:33:36;;;;;;;4.97;1.20;;;;;;;16.50;49.16;101342.56;5111986;28;20043;-68
2022/07/05 04:36:03;;;;;;;4.53;1.05;;;;;;;16.72;48.74;101343.59;5112905;28;20040;-68
2022/07/05 04:38:30;;;;;;;3.60;1.10;;;;;;;17.00;47.59;101341.91;5112030;28;20088;-68
2022/07/05 04:40:56;;;;;;;3.50;1.17;;;;;;;16.90;47.74;101336.75;5112174;28;20075;-68
2022/07/05 04:43:23;;;;;;;3.45;1.33;;;;;;;16.79;47.88;101344.53;5112609;28;20453;-68
2022/07/05 04:45:50;;;;;;;3.10;1.38;;;;;;;16.95;48.18;101343.47;5112130;28;20044;-68
2022/07/05 04:48:22;;;;;;;9.15;1.38;;;;;;;16.94;48.04;101348.06;5111317;28;20039;-69
2022/07/05 04:50:48;;;;;;;5.60;1.23;;;;;;;16.85;48.29;101354.59;5112184;28;20047;-68
2022/07/05 04:53:15;;;;;;;3.42;1.15;;;;;;;16.87;48.18;101357.97;5111829;28;20502;-68
2022/07/05 04:55:41;;;;;;;4.75;1.10;;;;;;;16.87;48.00;101360.69;5110642;28;20123;-70
2022/07/05 04:58:08;;;;;;;4.68;1.13;;;;;;;16.86;48.15;101359.84;5112154;28;20086;-68
2022/07/05 05:00:35;;;;;;;4.90;1.40;;;;;;;16.85;47.75;101369.00;5112507;28;20123;-69
2022/07/05 05:03:01;;;;;;;2.08;0.95;;;;;;;16.78;47.92;101367.19;5111216;28;20414;-68
2022/07/05 05:05:28;;;;;;;3.08;1.00;;;;;;;16.67;47.44;101372.06;5111895;28;20064;-68
2022/07/05 05:07:55;;;;;;;12.98;2.10;;;;;;;16.70;48.41;101372.72;5111185;28;20071;-69
2022/07/05 05:10:21;;;;;;;6.35;1.40;;;;;;;16.71;48.67;101374.41;5112041;28;20067;-67
2022/07/05 05:12:48;;;;;;;3.90;1.27;;;;;;;16.66;48.32;101380.38;5106959;28;20047;-67
2022/07/05 05:15:14;;;;;;;8.13;1.35;;;;;;;16.67;48.01;101385.59;5111370;28;20071;-67
2022/07/05 05:17:43;;;;;;;3.42;1.08;;;;;;;16.67;47.30;101385.59;5110707;28;20126;-67
2022/07/05 05:20:13;;;;;;;5.00;1.27;;;;;;;16.69;46.78;101387.31;5111371;28;20055;-68
2022/07/05 05:22:40;;;;;;;2.67;1.08;;;;;;;16.71;46.68;101396.06;5111258;28;20142;-68
2022/07/05 05:25:08;;;;;;;4.65;1.02;;;;;;;16.61;45.75;101394.47;5110693;28;20059;-67
2022/07/05 05:27:35;;;;;;;2.97;0.88;;;;;;;16.73;46.39;101391.31;5100605;28;20053;-67
2022/07/05 05:30:02;;;;;;;9.68;1.35;;;;;;;16.77;45.46;101390.75;5111742;28;20043;-67
2022/07/05 05:32:28;;;;;;;4.18;1.23;;;;;;;16.80;45.85;101392.25;5111692;28;20121;-67
2022/07/05 05:34:55;;;;;;;5.72;1.10;;;;;;;16.80;45.58;101400.38;5112357;28;20064;-68
2022/07/05 05:37:21;;;;;;;4.55;1.15;;;;;;;16.84;45.30;101401.69;5112671;28;20035;-67
2022/07/05 05:39:48;;;;;;;5.07;1.40;;;;;;;16.88;45.00;101397.59;5111575;28;20043;-68
2022/07/05 05:42:15;;;;;;;3.60;1.38;;;;;;;16.89;45.08;101404.72;5110817;28;20097;-68
2022/07/05 05:44:41;;;;;;;4.15;1.40;;;;;;;16.89;44.65;101404.72;5110837;28;20144;-69
2022/07/05 05:47:08;;;;;;;4.22;1.38;;;;;;;16.88;44.77;101401.13;5111739;28;20044;-68
2022/07/05 05:49:42;;;;;;;3.58;1.33;;;;;;;16.94;44.93;101402.28;5110733;28;20549;-68
2022/07/05 05:52:09;;;;;;;9.25;1.85;;;;;;;16.94;44.57;101409.56;5093807;28;20067;-68
2022/07/05 05:54:36;;;;;;;7.35;1.30;;;;;;;16.86;44.19;101405.91;5110613;28;20369;-68
2022/07/05 05:57:02;;;;;;;3.78;1.27;;;;;;;16.88;44.18;101403.84;5110853;28;20127;-68
2022/07/05 05:59:29;;;;;;;2.70;1.05;;;;;;;16.87;44.08;101406.75;5113518;28;20067;-68
2022/07/05 06:01:55;;;;;;;3.35;1.40;;;;;;;16.87;43.92;101409.47;5114774;28;20385;-68
2022/07/05 06:04:22;;;;;;;4.10;1.15;;;;;;;16.93;43.54;101425.00;5115645;28;20047;-68
2022/07/05 06:06:48;;;;;;;3.30;1.48;;;;;;;16.88;43.09;101430.94;5114321;28;20044;-68
2022/07/05 06:09:15;;;;;;;6.28;1.45;;;;;;;17.04;43.68;101424.53;5114746;28;20048;-68
2022/07/05 06:11:41;;;;;;;6.85;1.45;;;;;;;17.08;43.59;101428.53;5115091;28;20123;-69
2022/07/05 06:14:09;;;;;;;4.05;1.27;;;;;;;17.08;43.37;101428.53;5114803;28;20463;-69
2022/07/05 06:16:35;;;;;;;4.75;1.58;;;;;;;17.10;43.20;101423.78;5114773;28;20131;-69
2022/07/05 06:19:02;;;;;;;5.00;1.13;;;;;;;17.05;43.43;101428.91;5115139;28;20048;-68
2022/07/05 06:21:28;;;;;;;2.80;1.25;;;;;;;17.12;43.35;101432.56;5115091;28;20143;-68
2022/07/05 06:23:55;;;;;;;4.90;1.33;;;;;;;17.19;43.53;101431.81;5114592;28;20075;-68
2022/07/05 06:26:21;;;;;;;6.13;1.27;;;;;;;17.22;43.43;101437.72;5114950;28;20133;-68
2022/07/05 06:28:49;;;;;;;7.60;1.60;;;;;;;17.32;43.36;101438.28;5114353;28;20130;-68
2022/07/05 06:31:16;;;;;;;5.93;1.25;;;;;;;17.32;43.34;101437.44;5114997;28;20070;-68
2022/07/05 06:33:42;;;;;;;2.33;1.10;;;;;;;17.34;43.44;101440.84;5114703;28;20496;-68
2022/07/05 06:36:09;;;;;;;5.78;1.10;;;;;;;17.33;43.20;101445.38;5114949;28;20046;-68
2022/07/05 06:38:35;;;;;;;5.53;1.50;;;;;;;17.37;43.30;101451.28;5096211;28;20036;-68
2022/07/05 06:41:02;;;;;;;5.93;1.30;;;;;;;17.38;43.42;101446.75;5114753;28;20085;-68
2022/07/05 06:43:28;;;;;;;4.72;1.60;;;;;;;17.44;43.51;101438.69;5111473;28;20135;-68
2022/07/05 06:45:55;;;;;;;4.85;1.50;;;;;;;17.47;43.77;101449.13;5099923;28;20126;-67
2022/07/05 06:48:22;;;;;;;5.55;1.55;;;;;;;17.53;43.33;101445.69;5105932;28;20044;-69
2022/07/05 06:50:48;;;;;;;9.30;1.70;;;;;;;17.68;43.37;101442.09;5094792;28;20427;-70
2022/07/05 06:53:15;;;;;;;4.40;1.63;;;;;;;17.74;43.08;101438.63;5102091;28;20087;-69
2022/07/05 06:55:44;;;;;;;10.80;1.92;;;;;;;17.81;43.22;101445.81;5114406;28;20395;-68
2022/07/05 06:58:16;;;;;;;8.30;1.80;;;;;;;17.90;43.15;101449.28;5114724;28;20043;-69
2022/07/05 07:00:44;;;;;;;4.65;1.45;;;;;;;17.97;42.87;101452.06;5109355;28;20052;-69
2022/07/05 07:03:31;;;;;;;7.30;1.73;;;;;;;17.95;43.06;101454.13;5093202;28;20073;-69
2022/07/05 07:06:18;;;;;;;5.47;1.88;;;;;;;18.00;42.86;101457.13;5093558;28;20040;-69
2022/07/05 07:11:32;;;;;;;9.55;1.48;;;;;;;18.20;42.39;101458.22;5092343;28;20047;-69
2022/07/05 07:13:59;;;;;;;8.70;1.95;;;;;;;18.23;42.36;101454.25;5092834;28;20055;-69
2022/07/05 07:16:26;;;;;;;6.50;1.50;;;;;;;18.27;42.14;101456.41;5094379;28;20044;-69
2022/07/05 07:18:52;;;;;;;4.20;1.50;;;;;;;18.59;41.55;101458.78;5106779;28;20047;-67
2022/07/05 07:21:39;;;;;;;7.90;1.58;;;;;;;18.97;40.58;101453.91;5114520;28;20040;-69
2022/07/05 07:24:07;;;;;;;7.18;1.58;;;;;;;19.39;39.46;101452.06;5114419;28;20071;-69
2022/07/05 07:27:02;;;;;;;9.13;1.50;;;;;;;19.52;39.02;101449.44;5113520;28;20071;-69
2022/07/05 07:29:21;;;;;;;4.63;1.80;;;;;;;19.47;39.10;101449.19;5114131;28;20047;-69
2022/07/05 07:31:48;;;;;;;6.15;1.20;;;;;;;19.31;39.27;101444.06;5114169;28;20047;-68
2022/07/05 07:34:14;;;;;;;7.68;1.27;;;;;;;19.50;38.49;101446.88;5113981;28;20127;-70
2022/07/05 07:36:41;;;;;;;4.13;1.17;;;;;;;19.53;38.07;101448.38;5113550;28;20051;-69
2022/07/05 07:39:08;;;;;;;6.53;1.05;;;;;;;19.62;38.02;101444.44;5115139;28;20059;-70
2022/07/05 07:41:34;;;;;;;8.10;1.45;;;;;;;19.75;38.01;101446.41;5115102;28;20491;-69
2022/07/05 07:44:01;;;;;;;7.90;1.33;;;;;;;19.84;38.25;101444.34;5113943;28;20063;-70
2022/07/05 07:46:28;;;;;;;3.65;0.98;;;;;;;20.14;37.46;101440.25;5113784;28;20380;-69
2022/07/05 07:48:54;;;;;;;6.88;1.02;;;;;;;20.30;36.93;101444.47;5113569;28;20077;-69
2022/07/05 07:51:21;;;;;;;3.90;1.17;;;;;;;20.33;36.76;101445.94;5113755;28;20096;-68
2022/07/05 07:53:48;;;;;;;7.22;1.10;;;;;;;20.20;36.84;101449.47;5093289;28;20055;-68
2022/07/05 07:56:15;;;;;;;4.78;1.58;;;;;;;20.42;36.36;101444.72;5093240;28;20063;-69
2022/07/05 07:58:41;;;;;;;3.58;1.20;;;;;;;20.90;35.38;101445.34;5093665;28;20143;-69
2022/07/05 08:01:10;;;;;;;4.25;0.85;;;;;;;20.91;35.52;101441.56;5092873;28;20484;-70
2022/07/05 08:03:38;;;;;;;3.92;1.40;;;;;;;20.98;35.63;101447.03;5093536;28;20067;-69
2022/07/05 08:06:05;;;;;;;4.63;1.17;;;;;;;20.75;35.54;101452.91;5093889;28;20047;-68
2022/07/05 08:08:32;;;;;;;4.40;1.48;;;;;;;20.75;35.95;101444.72;5093239;28;20075;-70
2022/07/05 08:11:14;;;;;;;4.07;1.00;;;;;;;20.64;36.36;101440.75;5092409;28;20582;-69
2022/07/05 08:13:42;;;;;;;7.20;1.38;;;;;;;20.66;36.23;101444.09;5093581;28;20102;-69
2022/07/05 08:16:10;;;;;;;5.45;1.40;;;;;;;20.52;36.49;101441.56;5091547;28;20139;-68
2022/07/05 08:21:30;;;;;;;8.13;1.10;;;;;;;20.83;36.15;101441.78;5093215;28;20139;-69
2022/07/05 08:24:06;;;;;;;6.85;1.02;;;;;;;20.44;36.45;101442.63;5092035;28;20458;-69
2022/07/05 08:26:34;;;;;;;5.18;1.40;;;;;;;20.47;36.29;101455.84;5092399;28;20439;-68
2022/07/05 08:29:03;;;;;;;4.20;1.10;;;;;;;20.50;36.19;101446.41;5092499;28;20083;-69
2022/07/05 08:31:38;;;;;;;8.40;1.40;;;;;;;20.69;35.87;101442.81;5092093;28;20068;-68
2022/07/05 08:34:04;;;;;;;5.93;1.55;;;;;;;21.39;34.76;101437.72;5091991;28;20540;-68
2022/07/05 08:36:31;;;;;;;3.88;1.20;;;;;;;21.80;34.01;101436.53;5092685;28;20052;-68
2022/07/05 08:38:58;;;;;;;3.70;0.98;;;;;;;20.97;35.33;101439.03;5092389;28;20063;-68
2022/07/05 08:41:25;;;;;;;4.85;1.20;;;;;;;20.94;35.54;101443.03;5075053;28;20044;-68
2022/07/05 08:43:52;;;;;;;2.95;1.00;;;;;;;21.18;35.21;101440.72;5090565;28;20068;-68
2022/07/05 08:46:20;;;;;;;5.50;1.08;;;;;;;21.11;35.17;101433.41;5091595;28;20115;-68
2022/07/05 08:48:48;;;;;;;3.90;1.05;;;;;;;21.38;34.66;101436.03;5092329;28;20044;-68
2022/07/05 08:51:17;;;;;;;6.38;1.20;;;;;;;21.55;34.40;101437.22;5092539;28;20044;-69
2022/07/05 08:53:45;;;;;;;4.35;1.42;;;;;;;21.20;34.95;101436.72;5052298;28;20049;-68
2022/07/05 08:56:13;;;;;;;10.73;1.65;;;;;;;21.58;34.83;101425.88;5052650;28;20132;-69
2022/07/05 08:58:51;;;;;;;521.78;29.80;;;;;;;21.82;34.67;101432.53;5052449;28;20102;-66
2022/07/05 09:01:18;;;;;;;113.18;5.90;;;;;;;21.61;34.12;101438.28;5048083;28;25121;-66
2022/07/05 09:03:48;;;;;;;7.50;1.02;;;;;;;21.82;33.62;101434.44;5051631;28;20052;-66
2022/07/05 09:06:22;;;;;;;3.55;1.00;;;;;;;22.00;33.80;101437.25;5051798;28;20497;-66
2022/07/05 09:08:55;;;;;;;3.28;1.10;;;;;;;21.68;34.34;101443.72;5052062;28;20045;-66
2022/07/05 09:11:30;;;;;;;6.72;1.30;;;;;;;21.09;35.01;101431.91;5050431;28;20548;-66
2022/07/05 09:13:57;;;;;;;3.75;1.15;;;;;;;21.85;33.75;101431.25;5051759;28;20041;-66
2022/07/05 09:16:44;;;;;;;7.97;1.60;;;;;;;21.93;33.62;101428.25;5051238;28;20048;-66
2022/07/05 09:19:10;;;;;;;3.70;1.02;;;;;;;22.25;33.30;101426.38;5050424;28;20041;-66
2022/07/05 09:21:37;;;;;;;14.80;1.38;;;;;;;22.29;33.32;101427.63;5051759;28;20437;-66
2022/07/05 09:24:06;;;;;;;4.68;1.10;;;;;;;21.37;34.66;101429.75;5051468;28;20456;-66
2022/07/05 09:26:39;;;;;;;3.22;1.20;;;;;;;22.01;33.88;101430.75;5051133;28;20136;-66
2022/07/05 09:29:13;;;;;;;11.52;1.40;;;;;;;21.77;33.95;101426.00;5051345;28;20041;-66
2022/07/05 09:32:00;;;;;;;7.60;1.30;;;;;;;22.07;33.69;101418.94;5051070;28;20051;-66
2022/07/05 09:34:29;;;;;;;4.93;1.30;;;;;;;22.20;33.34;101420.75;5051427;28;20128;-66
2022/07/05 09:37:03;;;;;;;11.93;1.52;;;;;;;21.36;35.07;101417.16;5051588;28;20102;-67
2022/07/05 09:39:30;;;;;;;6.03;1.40;;;;;;;21.17;35.32;101419.94;5051890;28;20049;-67
2022/07/05 09:42:13;;;;;;;4.07;1.10;;;;;;;22.50;33.19;101412.78;5052274;28;20132;-67
2022/07/05 09:44:50;;;;;;;5.60;1.27;;;;;;;22.37;33.23;101412.00;5051091;28;20123;-67
2022/07/05 09:47:19;;;;;;;6.60;1.30;;;;;;;21.56;34.96;101421.69;5050238;28;20073;-67
2022/07/05 09:49:53;;;;;;;18.15;1.85;;;;;;;21.87;34.34;101422.84;5051430;28;20481;-67
2022/07/05 09:52:39;;;;;;;7.93;1.17;;;;;;;22.16;33.71;101415.94;5051068;28;20045;-67
2022/07/05 09:55:18;;;;;;;2.45;1.10;;;;;;;21.70;34.34;101414.28;5050703;28;20041;-67
2022/07/05 09:57:47;;;;;;;8.45;1.40;;;;;;;21.49;34.42;101423.59;5051377;28;20056;-67
2022/07/05 10:00:16;;;;;;;6.28;1.40;;;;;;;21.49;34.75;101418.97;5050355;28;20123;-67
2022/07/05 10:02:44;;;;;;;6.55;1.33;;;;;;;20.72;36.04;101422.50;5050738;28;20072;-67
2022/07/05 10:05:19;;;;;;;5.47;1.30;;;;;;;21.17;35.49;101423.50;5051451;28;20049;-67
2022/07/05 10:07:48;;;;;;;6.68;1.30;;;;;;;20.81;36.13;101419.34;5051262;28;20140;-68
2022/07/05 10:10:18;;;;;;;5.70;1.05;;;;;;;21.62;34.44;101413.47;5050809;28;20116;-68
2022/07/05 10:12:46;;;;;;;7.90;1.25;;;;;;;21.71;34.46;101408.63;5051564;28;20129;-70
2022/07/05 10:15:18;;;;;;;51.05;2.95;;;;;;;21.33;35.24;101414.03;5050995;28;20477;-71
2022/07/05 10:17:50;;;;;;;5.00;1.40;;;;;;;20.74;36.35;101417.69;5050996;28;20098;-69
2022/07/05 10:20:22;;;;;;;10.57;1.73;;;;;;;20.64;37.14;101424.38;5050540;28;20131;-69
2022/07/05 10:22:48;;;;;;;4.88;1.35;;;;;;;21.19;35.31;101415.94;5029466;28;20073;-67
2022/07/05 10:25:15;;;;;;;3.85;1.40;;;;;;;20.67;36.20;101420.41;5051111;28;20075;-67
2022/07/05 10:27:42;;;;;;;5.55;1.10;;;;;;;20.33;36.69;101418.69;5049728;28;20056;-67
2022/07/05 10:30:11;;;;;;;3.78;1.20;;;;;;;20.24;36.70;101423.47;5051071;28;20068;-67
2022/07/05 10:32:38;;;;;;;2.72;0.90;;;;;;;20.10;37.07;101422.63;5050873;28;20053;-67
2022/07/05 10:35:06;;;;;;;3.70;1.00;;;;;;;19.71;38.16;101423.34;5050476;28;20068;-66
2022/07/05 10:37:34;;;;;;;8.63;1.45;;;;;;;20.18;37.40;101421.59;5051290;28;20099;-66
2022/07/05 10:40:03;;;;;;;9.15;1.35;;;;;;;20.61;36.57;101413.06;5050510;28;20420;-68
2022/07/05 10:42:37;;;;;;;10.48;1.38;;;;;;;20.76;36.17;101415.56;5050153;28;20137;-69
2022/07/05 10:45:21;;;;;;;5.50;1.10;;;;;;;20.05;36.71;101416.97;5052012;28;20124;-67
2022/07/05 10:48:09;;;;;;;16.92;2.33;;;;;;;20.42;36.03;101415.59;5054598;28;20167;-68
2022/07/05 10:50:48;;;;;;;27.85;2.13;;;;;;;20.59;35.50;101415.16;5054649;28;20041;-68
2022/07/05 10:53:16;;;;;;;839.88;55.13;;;;;;;20.59;36.03;101415.16;5085947;28;20140;-69
2022/07/05 10:55:53;;;;;;;26.17;2.22;;;;;;;20.36;35.73;101418.28;5094152;28;20142;-69
2022/07/05 10:58:21;;;;;;;6.55;1.27;;;;;;;20.14;36.50;101413.00;5094797;28;20048;-67
2022/07/05 11:01:23;;;;;;;3.58;1.20;;;;;;;20.18;36.51;101408.81;5094042;28;20052;-67
2022/07/05 11:03:57;;;;;;;4.47;1.85;;;;;;;20.63;36.36;101410.97;5093852;28;20092;-68
2022/07/05 11:06:24;;;;;;;11.38;1.63;;;;;;;20.77;36.31;101404.47;5094037;28;20048;-69
2022/07/05 11:08:56;;;;;;;30.73;7.30;;;;;;;18.99;51.16;101402.88;5094536;28;20155;-67
2022/07/05 11:11:25;;;;;;;87.50;6.32;;;;;;;-149.70;100.00;63222.41;5093930;28;20044;-67
2022/07/05 11:14:33;;;;;;;13.27;2.15;;;;;;;-149.70;100.00;63222.41;5093808;28;20075;-66
2022/07/05 11:17:11;;;;;;;4.32;1.83;;;;;;;-149.70;100.00;63222.41;5094234;28;20063;-66
2022/07/05 11:20:08;;;;;;;11.73;2.10;;;;;;;18.99;51.16;101402.88;5093312;28;20419;-67
2022/07/05 11:23:25;;;;;;;12.00;1.70;;;;;;;;;;5093975;28;20103;-66
2022/07/05 11:26:53;;;;;;;6.20;1.42;;;;;;;-149.70;100.00;63222.41;5093965;28;20043;-67
2022/07/05 11:29:52;;;;;;;4.63;1.92;;;;;;;-149.70;100.00;63222.41;5092966;28;20044;-69
2022/07/05 11:32:47;;;;;;;3.25;1.25;;;;;;;-149.70;100.00;63222.41;5078852;28;20126;-68
2022/07/05 11:35:46;;;;;;;6.68;1.25;;;;;;;-149.70;100.00;63222.41;5091233;28;20135;-68
2022/07/05 11:39:20;;;;;;;6.25;1.42;;;;;;;-149.70;100.00;63222.41;5093440;28;20044;-68
2022/07/05 11:42:19;;;;;;;4.00;1.30;;;;;;;-149.70;100.00;63222.41;5114028;28;20150;-68